Florence, OR

6:45 AM PST on February 14, 2016 (GMT -0800)
Collard Lake | | Change Station
CLOSE
Current Station
Personal Weather Station
Location: Florence, OR
Elevation: 174 ft
Nearby Weather Stations

Elev 174 ft 44.04 °N, 124.08 °W | Updated 8 seconds ago

Rain
Rain
51.4 °F
Feels Like 51.4 °F
N
7.3
Wind Variable Wind from North

Today
High -- | Low -- °F
--% Chance of Precip.
Yesterday
High -- | Low -- °F
Precip. -- in
Pressure 30.27 in
Visibility 3.0 miles
Clouds Overcast 200 ft
Dew Point 51 °F
Humidity 99%
Rainfall 0.74 in
Snow Depth Not available.
7:17 AM 5:43 PM
Waxing Crescent, 42% visible
METAR KONP 141435Z AUTO 20015G20KT 3SM +RA OVC002 11/11 A3027 RMK AO2 P0012
Pressure 30.27 in
Visibility 3.0 miles
Clouds Overcast 200 ft
Dew Point 51 °F
Humidity 99%
Rainfall 0.74 in
Snow Depth Not available.
7:17 AM 5:43 PM
Waxing Crescent, 42% visible
METAR KONP 141435Z AUTO 20015G20KT 3SM +RA OVC002 11/11 A3027 RMK AO2 P0012

10-Day Weather Forecast

Almanac

Astronomy

Feb. 14, 2016 Rise Set
Actual Time
Civil Twilight
Nautical Twilight
Astronomical Twilight
Moon
Length of Visible Light
Length of Day
Tomorrow will be .
, % of the Moon is Illuminated

Today's Extremes

State Highs State Lows

Community

WunderPhotos

Upload Photos

1,892,781 photos uploaded!

WunderBlog® & News

Nearby

Air Quality

  Air Quality AQ Index Pollutant
Not available.

Snow Depth

Station Depth Elevation

Earthquake Activity

City Distance Mag. Time & Date
Minimum magnitude displayed is 2.5.

Coastal Water Temperatures

Place Temperature

Stations

Nearby Weather Stations

Station Location Temp. Windchill Dew Point Humidity Wind Precip. Elev Updated Type
                   

Watches & Warnings

There are currently no watches in effect.